createdAt,value
2022-10-14T05:03:26.190Z,97.70
2022-10-14T05:08:29.809Z,97.70
2022-10-14T05:13:35.096Z,97.70
2022-10-14T05:18:40.884Z,97.70
2022-10-14T05:23:45.327Z,97.80
2022-10-14T05:28:49.647Z,98.20
2022-10-14T05:33:56.972Z,98.20
2022-10-14T05:39:00.637Z,98.20
2022-10-14T05:44:06.292Z,98.30
2022-10-14T05:49:11.802Z,98.30
2022-10-14T05:54:15.676Z,98.10
2022-10-14T05:59:19.814Z,98.30
2022-10-14T06:04:25.016Z,98.10
2022-10-14T06:09:31.274Z,98.00
2022-10-14T06:14:34.833Z,97.80
2022-10-14T06:19:39.746Z,97.70
2022-10-14T06:24:43.269Z,97.90
2022-10-14T06:29:46.947Z,97.90
2022-10-14T06:34:51.833Z,98.00
2022-10-14T06:39:55.463Z,97.90
2022-10-14T06:44:58.985Z,97.90
2022-10-14T06:50:03.916Z,97.90
2022-10-14T06:55:08.501Z,98.00
2022-10-14T07:00:12.255Z,98.00
2022-10-14T07:05:17.337Z,98.00
2022-10-14T07:10:20.990Z,97.90
2022-10-14T07:15:24.622Z,97.90
2022-10-14T07:20:29.503Z,98.00
2022-10-14T07:25:33.566Z,98.00
2022-10-14T07:30:37.131Z,98.00
2022-10-14T07:35:42.133Z,98.10
2022-10-14T07:40:45.821Z,98.30
2022-10-14T07:45:50.997Z,98.20
2022-10-14T07:50:55.940Z,98.20
2022-10-14T07:56:00.341Z,98.30
2022-10-14T08:01:03.908Z,98.40
2022-10-14T08:06:09.569Z,98.40
2022-10-14T08:11:15.522Z,98.50
2022-10-14T08:16:21.481Z,98.50
2022-10-14T08:21:27.048Z,98.60
2022-10-14T08:26:32.915Z,98.60
2022-10-14T08:31:36.465Z,98.50
2022-10-14T08:36:41.735Z,98.50
2022-10-14T08:42:06.220Z,98.50
2022-10-14T08:47:14.292Z,98.60
2022-10-14T08:52:24.759Z,98.50
2022-10-14T08:57:33.497Z,98.50
2022-10-14T09:02:43.956Z,98.50
2022-10-14T09:12:59.676Z,98.50
2022-10-14T09:18:08.758Z,98.40
2022-10-14T09:23:18.236Z,98.40
2022-10-14T09:28:22.352Z,98.40
2022-10-14T09:33:28.303Z,98.40
2022-10-14T09:38:33.398Z,98.50
2022-10-14T09:48:48.632Z,98.50
2022-10-14T09:53:56.253Z,98.50
2022-10-14T09:59:00.253Z,98.50
2022-10-14T10:04:27.335Z,98.50
2022-10-14T10:09:32.666Z,98.70
2022-10-14T10:14:36.229Z,98.70
2022-10-14T10:19:43.072Z,98.60
2022-10-14T10:24:48.677Z,98.70
2022-10-14T10:29:52.337Z,98.70
2022-10-14T10:35:09.782Z,98.80
2022-10-14T10:40:33.254Z,98.90
2022-10-14T10:45:46.617Z,98.90
2022-10-14T10:50:58.365Z,98.80
2022-10-14T10:56:13.532Z,98.70
2022-10-14T11:01:31.580Z,98.80
2022-10-14T11:07:00.871Z,98.90
2022-10-14T11:12:15.621Z,99.00
2022-10-14T11:17:29.752Z,99.00
2022-10-14T11:22:48.996Z,98.90
2022-10-14T11:28:00.759Z,99.00
2022-10-14T11:33:39.712Z,98.90
2022-10-14T11:39:04.300Z,99.00
2022-10-14T11:44:16.746Z,99.10
2022-10-14T11:49:25.592Z,98.80
2022-10-14T11:54:36.646Z,98.50
2022-10-14T11:59:47.555Z,98.50
2022-10-14T12:04:57.142Z,98.50
2022-10-14T12:10:04.117Z,98.40
2022-10-14T12:15:17.257Z,98.20
2022-10-14T12:20:30.696Z,98.30
2022-10-14T12:25:44.157Z,98.50
2022-10-14T12:30:49.185Z,98.40
2022-10-14T12:35:59.270Z,98.40
2022-10-14T12:41:34.087Z,98.40
2022-10-14T12:46:45.170Z,98.40
2022-10-14T12:51:56.250Z,98.30
2022-10-14T12:57:03.042Z,98.30
2022-10-14T13:02:24.909Z,98.30
2022-10-14T13:07:41.168Z,98.40
2022-10-14T13:12:45.622Z,98.50
2022-10-14T13:17:50.532Z,98.60
2022-10-14T13:22:54.432Z,98.40
2022-10-14T13:28:16.169Z,98.40
2022-10-14T13:33:27.742Z,98.20
2022-10-14T13:38:32.901Z,98.30
2022-10-14T13:43:40.492Z,98.30
2022-10-14T13:48:48.318Z,98.10
2022-10-14T13:53:52.961Z,98.10
2022-10-14T13:58:57.036Z,98.10
2022-10-14T14:04:02.266Z,98.10
2022-10-14T14:09:07.944Z,98.00
2022-10-14T14:14:20.284Z,97.90
2022-10-14T14:19:30.117Z,97.90
2022-10-14T14:24:34.251Z,97.90
2022-10-14T14:29:39.015Z,97.70
2022-10-14T14:34:46.515Z,97.60
2022-10-14T14:39:57.443Z,97.60
2022-10-14T14:45:04.602Z,97.80
2022-10-14T14:50:31.438Z,97.70
2022-10-14T14:55:38.540Z,97.70
2022-10-14T15:00:46.232Z,97.50
2022-10-14T15:05:58.569Z,97.60
2022-10-14T15:11:03.018Z,97.60
2022-10-14T15:16:07.497Z,97.60
2022-10-14T15:21:20.155Z,97.50
2022-10-14T15:26:29.508Z,97.40
2022-10-14T15:31:33.090Z,97.30
2022-10-14T15:36:37.994Z,97.30
2022-10-14T15:41:41.931Z,97.10
2022-10-14T15:47:04.625Z,97.10
2022-10-14T15:52:14.304Z,97.10
2022-10-14T15:57:18.106Z,97.10
2022-10-14T16:02:25.266Z,97.00
2022-10-14T16:07:30.198Z,96.90
2022-10-14T16:12:33.705Z,96.80
2022-10-14T16:17:37.257Z,96.70
2022-10-14T16:22:42.180Z,96.60
2022-10-14T16:27:45.752Z,96.60
2022-10-14T16:32:51.207Z,96.70
2022-10-14T16:37:56.361Z,96.70
2022-10-14T16:42:59.878Z,96.60
2022-10-14T16:48:03.776Z,96.60
2022-10-14T16:53:25.997Z,96.60
2022-10-14T16:58:29.666Z,96.40
2022-10-14T17:03:33.189Z,96.50
2022-10-14T17:08:41.047Z,96.70
2022-10-14T17:13:44.772Z,96.90
2022-10-14T17:24:02.482Z,97.30
2022-10-14T17:29:06.004Z,97.20
2022-10-14T17:34:09.882Z,97.10
2022-10-14T17:39:22.823Z,97.10
2022-10-14T17:44:33.258Z,97.30
2022-10-14T17:49:37.429Z,97.50
2022-10-14T17:54:42.314Z,97.60
2022-10-14T17:59:45.829Z,97.70
2022-10-14T18:04:49.354Z,97.70
2022-10-14T18:09:54.226Z,97.80
2022-10-14T18:14:58.175Z,97.80
2022-10-14T18:20:05.471Z,97.90
2022-10-14T18:25:10.809Z,98.10
2022-10-14T18:30:14.603Z,98.20
2022-10-14T18:35:18.215Z,98.20
2022-10-14T18:40:23.421Z,98.30
2022-10-14T18:45:26.990Z,98.50
2022-10-14T18:50:30.735Z,98.50
2022-10-14T18:55:39.481Z,98.60
2022-10-14T19:00:42.994Z,98.70
2022-10-14T19:05:47.199Z,98.70
2022-10-14T19:10:52.158Z,98.80
2022-10-14T19:16:01.639Z,98.80
2022-10-14T19:21:08.565Z,98.90
2022-10-14T19:31:25.110Z,98.90
2022-10-14T19:36:29.111Z,98.80
2022-10-14T19:41:38.445Z,98.90
2022-10-14T19:46:42.377Z,98.90
2022-10-14T19:51:45.873Z,98.90
2022-10-14T19:56:50.753Z,98.90
2022-10-14T20:01:54.465Z,98.90
2022-10-14T20:06:58.046Z,98.90
2022-10-14T20:12:03.021Z,98.80
2022-10-14T20:17:06.691Z,98.80
2022-10-14T20:22:10.216Z,98.90
2022-10-14T20:27:15.147Z,98.90
2022-10-14T20:32:18.734Z,98.80
2022-10-14T20:37:24.358Z,98.70
2022-10-14T20:42:34.473Z,98.70
2022-10-14T20:47:38.065Z,98.70
2022-10-14T20:52:41.556Z,98.80
2022-10-14T20:57:46.459Z,98.80
2022-10-14T21:02:50.034Z,98.80
2022-10-14T21:07:53.801Z,98.80
2022-10-14T21:12:58.680Z,98.80
2022-10-14T21:18:02.201Z,98.90
2022-10-14T21:23:05.727Z,99.00
2022-10-14T21:28:10.786Z,99.10
2022-10-14T21:33:14.359Z,99.10
2022-10-14T21:38:17.899Z,99.00
2022-10-14T21:43:22.791Z,99.10
2022-10-14T21:48:26.320Z,99.10
2022-10-14T21:53:30.994Z,99.20
2022-10-14T21:58:36.167Z,99.30
2022-10-14T22:03:39.833Z,99.40
2022-10-14T22:08:46.060Z,99.30
2022-10-14T22:13:51.728Z,99.20
2022-10-14T22:18:55.273Z,99.40
2022-10-14T22:23:59.455Z,99.50
2022-10-14T22:29:07.449Z,99.50
